sensor_id;sensor_type;location;lat;lon;timestamp;pressure;altitude;pressure_sealevel;temperature;humidity
47240;BME280;32978;53.586;10.052;2023-02-02T00:04:48;101041.06;;;4.28;100.00
47240;BME280;32978;53.586;10.052;2023-02-02T00:09:44;101039.97;;;4.24;100.00
47240;BME280;32978;53.586;10.052;2023-02-02T00:14:41;101063.25;;;4.30;100.00
47240;BME280;32978;53.586;10.052;2023-02-02T00:19:37;101055.69;;;4.27;100.00
47240;BME280;32978;53.586;10.052;2023-02-02T00:24:34;101067.59;;;4.31;100.00
47240;BME280;32978;53.586;10.052;2023-02-02T00:29:30;101075.44;;;4.33;100.00
47240;BME280;32978;53.586;10.052;2023-02-02T00:34:27;101068.13;;;4.38;100.00
47240;BME280;32978;53.586;10.052;2023-02-02T00:39:24;101086.28;;;4.38;100.00
47240;BME280;32978;53.586;10.052;2023-02-02T00:44:23;101096.84;;;4.39;100.00
47240;BME280;32978;53.586;10.052;2023-02-02T00:49:38;101092.53;;;4.43;100.00
47240;BME280;32978;53.586;10.052;2023-02-02T00:54:34;101099.56;;;4.45;100.00
47240;BME280;32978;53.586;10.052;2023-02-02T00:59:31;101109.59;;;4.44;100.00
47240;BME280;32978;53.586;10.052;2023-02-02T01:04:28;101097.41;;;4.41;100.00
47240;BME280;32978;53.586;10.052;2023-02-02T01:09:24;101116.88;;;4.38;100.00
47240;BME280;32978;53.586;10.052;2023-02-02T01:14:20;101115.81;;;4.34;100.00
47240;BME280;32978;53.586;10.052;2023-02-02T01:19:17;101121.72;;;4.31;100.00
47240;BME280;32978;53.586;10.052;2023-02-02T01:24:13;101124.72;;;4.30;100.00
47240;BME280;32978;53.586;10.052;2023-02-02T01:29:10;101119.53;;;4.23;100.00
47240;BME280;32978;53.586;10.052;2023-02-02T01:34:07;101137.38;;;4.14;100.00
47240;BME280;32978;53.586;10.052;2023-02-02T01:39:04;101155.22;;;4.15;100.00
47240;BME280;32978;53.586;10.052;2023-02-02T01:44:05;101176.88;;;4.15;100.00
47240;BME280;32978;53.586;10.052;2023-02-02T01:49:12;101193.09;;;4.10;100.00
47240;BME280;32978;53.586;10.052;2023-02-02T01:54:15;101192.22;;;3.99;100.00
47240;BME280;32978;53.586;10.052;2023-02-02T01:59:15;101179.44;;;3.89;100.00
47240;BME280;32978;53.586;10.052;2023-02-02T02:04:12;101204.59;;;3.90;100.00
47240;BME280;32978;53.586;10.052;2023-02-02T02:09:09;101214.66;;;3.94;100.00
47240;BME280;32978;53.586;10.052;2023-02-02T02:14:08;101219.81;;;4.01;100.00
47240;BME280;32978;53.586;10.052;2023-02-02T02:19:37;101220.00;;;3.84;100.00
47240;BME280;32978;53.586;10.052;2023-02-02T02:26:14;101227.03;;;3.85;100.00
47240;BME280;32978;53.586;10.052;2023-02-02T02:31:11;101248.66;;;3.85;100.00
47240;BME280;32978;53.586;10.052;2023-02-02T02:41:26;101256.69;;;3.70;100.00
47240;BME280;32978;53.586;10.052;2023-02-02T02:46:24;101260.44;;;3.69;100.00
47240;BME280;32978;53.586;10.052;2023-02-02T02:51:45;101261.50;;;3.63;100.00
47240;BME280;32978;53.586;10.052;2023-02-02T03:02:13;101282.69;;;3.76;100.00
47240;BME280;32978;53.586;10.052;2023-02-02T03:07:21;101267.59;;;3.85;100.00
47240;BME280;32978;53.586;10.052;2023-02-02T03:12:19;101273.34;;;3.94;100.00
47240;BME280;32978;53.586;10.052;2023-02-02T03:17:15;101277.22;;;4.03;100.00
47240;BME280;32978;53.586;10.052;2023-02-02T03:22:11;101276.19;;;4.09;100.00
47240;BME280;32978;53.586;10.052;2023-02-02T03:27:08;101302.44;;;4.09;100.00
47240;BME280;32978;53.586;10.052;2023-02-02T03:32:04;101308.81;;;3.92;100.00
47240;BME280;32978;53.586;10.052;2023-02-02T03:37:01;101322.38;;;3.97;100.00
47240;BME280;32978;53.586;10.052;2023-02-02T03:41:57;101323.50;;;4.02;100.00
47240;BME280;32978;53.586;10.052;2023-02-02T03:46:54;101334.81;;;3.98;100.00
47240;BME280;32978;53.586;10.052;2023-02-02T03:51:50;101344.81;;;3.98;100.00
47240;BME280;32978;53.586;10.052;2023-02-02T03:56:47;101345.06;;;3.96;100.00
47240;BME280;32978;53.586;10.052;2023-02-02T04:01:43;101345.63;;;3.98;100.00
47240;BME280;32978;53.586;10.052;2023-02-02T04:06:40;101347.19;;;3.89;100.00
47240;BME280;32978;53.586;10.052;2023-02-02T04:11:36;101353.41;;;3.90;100.00
47240;BME280;32978;53.586;10.052;2023-02-02T04:16:35;101350.97;;;3.88;100.00
47240;BME280;32978;53.586;10.052;2023-02-02T04:21:32;101365.31;;;3.89;100.00
47240;BME280;32978;53.586;10.052;2023-02-02T04:26:29;101381.28;;;3.90;100.00
47240;BME280;32978;53.586;10.052;2023-02-02T04:31:25;101393.72;;;3.91;100.00
47240;BME280;32978;53.586;10.052;2023-02-02T04:36:22;101405.09;;;3.88;100.00
47240;BME280;32978;53.586;10.052;2023-02-02T04:41:19;101419.00;;;3.75;100.00
47240;BME280;32978;53.586;10.052;2023-02-02T04:46:16;101419.78;;;3.70;100.00
47240;BME280;32978;53.586;10.052;2023-02-02T04:51:13;101431.91;;;3.68;100.00
47240;BME280;32978;53.586;10.052;2023-02-02T04:56:15;101427.31;;;3.68;100.00
47240;BME280;32978;53.586;10.052;2023-02-02T05:01:15;101439.28;;;3.72;100.00
47240;BME280;32978;53.586;10.052;2023-02-02T05:06:12;101434.66;;;3.73;100.00
47240;BME280;32978;53.586;10.052;2023-02-02T05:11:17;101448.75;;;3.75;100.00
47240;BME280;32978;53.586;10.052;2023-02-02T05:16:13;101459.38;;;3.82;100.00
47240;BME280;32978;53.586;10.052;2023-02-02T05:21:10;101468.25;;;3.77;100.00
47240;BME280;32978;53.586;10.052;2023-02-02T05:26:12;101444.88;;;3.66;100.00
47240;BME280;32978;53.586;10.052;2023-02-02T05:31:10;101454.50;;;3.56;100.00
47240;BME280;32978;53.586;10.052;2023-02-02T05:36:07;101462.06;;;3.54;100.00
47240;BME280;32978;53.586;10.052;2023-02-02T05:41:03;101459.03;;;3.51;100.00
47240;BME280;32978;53.586;10.052;2023-02-02T05:46:00;101475.00;;;3.52;100.00
47240;BME280;32978;53.586;10.052;2023-02-02T05:51:02;101483.44;;;3.56;100.00
47240;BME280;32978;53.586;10.052;2023-02-02T05:56:00;101493.00;;;3.64;100.00
47240;BME280;32978;53.586;10.052;2023-02-02T06:00:56;101500.63;;;3.67;100.00
47240;BME280;32978;53.586;10.052;2023-02-02T06:05:53;101508.22;;;3.70;100.00
47240;BME280;32978;53.586;10.052;2023-02-02T06:10:49;101503.38;;;3.72;100.00
47240;BME280;32978;53.586;10.052;2023-02-02T06:15:46;101499.06;;;3.76;100.00
47240;BME280;32978;53.586;10.052;2023-02-02T06:20:42;101517.53;;;3.79;100.00
47240;BME280;32978;53.586;10.052;2023-02-02T06:25:39;101521.03;;;3.79;100.00
47240;BME280;32978;53.586;10.052;2023-02-02T06:30:35;101526.78;;;3.83;100.00
47240;BME280;32978;53.586;10.052;2023-02-02T06:35:32;101530.84;;;3.86;100.00
47240;BME280;32978;53.586;10.052;2023-02-02T06:40:28;101554.44;;;3.90;100.00
47240;BME280;32978;53.586;10.052;2023-02-02T06:45:26;101566.91;;;3.91;100.00
47240;BME280;32978;53.586;10.052;2023-02-02T06:50:23;101566.31;;;3.89;100.00
47240;BME280;32978;53.586;10.052;2023-02-02T06:55:19;101570.69;;;3.90;100.00
47240;BME280;32978;53.586;10.052;2023-02-02T07:00:16;101571.69;;;3.84;100.00
47240;BME280;32978;53.586;10.052;2023-02-02T07:05:15;101574.81;;;3.76;100.00
47240;BME280;32978;53.586;10.052;2023-02-02T07:10:17;101581.25;;;3.70;100.00
47240;BME280;32978;53.586;10.052;2023-02-02T07:15:34;101582.38;;;3.74;100.00
47240;BME280;32978;53.586;10.052;2023-02-02T07:20:33;101595.81;;;3.69;100.00
47240;BME280;32978;53.586;10.052;2023-02-02T07:25:29;101601.75;;;3.66;100.00
47240;BME280;32978;53.586;10.052;2023-02-02T07:30:26;101598.97;;;3.61;100.00
47240;BME280;32978;53.586;10.052;2023-02-02T07:35:25;101608.56;;;3.51;100.00
47240;BME280;32978;53.586;10.052;2023-02-02T07:40:22;101612.44;;;3.55;100.00
47240;BME280;32978;53.586;10.052;2023-02-02T07:45:18;101627.34;;;3.58;100.00
47240;BME280;32978;53.586;10.052;2023-02-02T07:50:23;101641.25;;;3.67;100.00
47240;BME280;32978;53.586;10.052;2023-02-02T07:55:20;101651.56;;;3.70;100.00
47240;BME280;32978;53.586;10.052;2023-02-02T08:00:17;101662.97;;;3.72;100.00
47240;BME280;32978;53.586;10.052;2023-02-02T08:05:14;101660.44;;;3.65;100.00
47240;BME280;32978;53.586;10.052;2023-02-02T08:10:10;101670.91;;;3.62;100.00
47240;BME280;32978;53.586;10.052;2023-02-02T08:15:07;101681.72;;;3.62;100.00
47240;BME280;32978;53.586;10.052;2023-02-02T08:20:04;101683.44;;;3.68;100.00
47240;BME280;32978;53.586;10.052;2023-02-02T08:25:01;101697.47;;;3.65;100.00
47240;BME280;32978;53.586;10.052;2023-02-02T08:29:57;101699.75;;;3.73;100.00
47240;BME280;32978;53.586;10.052;2023-02-02T08:34:54;101704.75;;;3.81;100.00
47240;BME280;32978;53.586;10.052;2023-02-02T08:39:50;101708.78;;;3.78;100.00
47240;BME280;32978;53.586;10.052;2023-02-02T08:44:47;101702.34;;;3.85;100.00
47240;BME280;32978;53.586;10.052;2023-02-02T08:50:03;101716.78;;;3.90;100.00
47240;BME280;32978;53.586;10.052;2023-02-02T08:55:00;101719.06;;;3.98;100.00
47240;BME280;32978;53.586;10.052;2023-02-02T08:59:57;101728.91;;;4.05;100.00
47240;BME280;32978;53.586;10.052;2023-02-02T09:04:53;101736.56;;;4.13;100.00
47240;BME280;32978;53.586;10.052;2023-02-02T09:09:50;101739.63;;;4.38;100.00
47240;BME280;32978;53.586;10.052;2023-02-02T09:14:47;101747.38;;;4.52;100.00
47240;BME280;32978;53.586;10.052;2023-02-02T09:19:44;101756.25;;;4.25;100.00
47240;BME280;32978;53.586;10.052;2023-02-02T09:24:40;101765.44;;;4.24;100.00
47240;BME280;32978;53.586;10.052;2023-02-02T09:29:37;101774.44;;;4.30;100.00
47240;BME280;32978;53.586;10.052;2023-02-02T09:34:33;101779.19;;;4.39;100.00
47240;BME280;32978;53.586;10.052;2023-02-02T09:39:30;101785.53;;;4.50;100.00
47240;BME280;32978;53.586;10.052;2023-02-02T09:55:03;101797.22;;;4.95;100.00
47240;BME280;32978;53.586;10.052;2023-02-02T10:00:02;101802.22;;;5.08;100.00
47240;BME280;32978;53.586;10.052;2023-02-02T10:05:06;101798.25;;;5.16;100.00
47240;BME280;32978;53.586;10.052;2023-02-02T10:10:31;101802.03;;;5.42;100.00
47240;BME280;32978;53.586;10.052;2023-02-02T10:15:38;101816.38;;;5.64;100.00
47240;BME280;32978;53.586;10.052;2023-02-02T10:20:47;101818.34;;;6.01;100.00
47240;BME280;32978;53.586;10.052;2023-02-02T10:36:32;101843.69;;;6.60;100.00
47240;BME280;32978;53.586;10.052;2023-02-02T10:41:58;101850.28;;;6.74;100.00
47240;BME280;32978;53.586;10.052;2023-02-02T10:47:01;101858.53;;;6.42;100.00
47240;BME280;32978;53.586;10.052;2023-02-02T10:57:07;101863.81;;;6.21;100.00
47240;BME280;32978;53.586;10.052;2023-02-02T11:02:10;101865.75;;;6.26;100.00
47240;BME280;32978;53.586;10.052;2023-02-02T11:07:16;101871.72;;;6.23;100.00
47240;BME280;32978;53.586;10.052;2023-02-02T11:12:22;101878.16;;;6.17;100.00
47240;BME280;32978;53.586;10.052;2023-02-02T11:17:23;101876.69;;;6.36;100.00
47240;BME280;32978;53.586;10.052;2023-02-02T11:22:37;101877.28;;;6.43;100.00
47240;BME280;32978;53.586;10.052;2023-02-02T11:27:39;101886.44;;;6.32;100.00
47240;BME280;32978;53.586;10.052;2023-02-02T11:32:36;101880.91;;;6.22;100.00
47240;BME280;32978;53.586;10.052;2023-02-02T11:37:34;101885.75;;;6.15;100.00
47240;BME280;32978;53.586;10.052;2023-02-02T11:42:32;101887.84;;;6.02;100.00
47240;BME280;32978;53.586;10.052;2023-02-02T11:47:31;101897.41;;;6.47;100.00
47240;BME280;32978;53.586;10.052;2023-02-02T11:52:29;101900.47;;;6.61;100.00
47240;BME280;32978;53.586;10.052;2023-02-02T11:57:28;101889.66;;;6.66;100.00
47240;BME280;32978;53.586;10.052;2023-02-02T12:02:29;101895.59;;;6.63;100.00
47240;BME280;32978;53.586;10.052;2023-02-02T12:07:31;101898.16;;;6.80;100.00
47240;BME280;32978;53.586;10.052;2023-02-02T12:12:44;101892.63;;;6.65;100.00
47240;BME280;32978;53.586;10.052;2023-02-02T12:17:47;101889.91;;;6.65;100.00
47240;BME280;32978;53.586;10.052;2023-02-02T12:27:54;101908.25;;;7.48;100.00
47240;BME280;32978;53.586;10.052;2023-02-02T12:33:46;101904.28;;;7.08;100.00
47240;BME280;32978;53.586;10.052;2023-02-02T12:44:01;101896.88;;;8.33;100.00
47240;BME280;32978;53.586;10.052;2023-02-02T12:49:25;101905.88;;;8.23;100.00
47240;BME280;32978;53.586;10.052;2023-02-02T12:54:29;101904.97;;;7.46;100.00
47240;BME280;32978;53.586;10.052;2023-02-02T12:59:59;101902.03;;;6.89;100.00
47240;BME280;32978;53.586;10.052;2023-02-02T13:10:29;101917.84;;;7.03;100.00
47240;BME280;32978;53.586;10.052;2023-02-02T13:15:35;101922.91;;;6.84;100.00
47240;BME280;32978;53.586;10.052;2023-02-02T13:21:15;101918.75;;;7.24;100.00
47240;BME280;32978;53.586;10.052;2023-02-02T13:26:20;101910.47;;;7.66;100.00
47240;BME280;32978;53.586;10.052;2023-02-02T13:31:34;101923.47;;;7.44;100.00
47240;BME280;32978;53.586;10.052;2023-02-02T13:36:34;101917.59;;;8.08;100.00
47240;BME280;32978;53.586;10.052;2023-02-02T13:41:32;101916.50;;;8.14;100.00
47240;BME280;32978;53.586;10.052;2023-02-02T13:46:49;101917.63;;;8.49;100.00
47240;BME280;32978;53.586;10.052;2023-02-02T14:02:53;101931.19;;;8.75;100.00
47240;BME280;32978;53.586;10.052;2023-02-02T14:07:58;101926.88;;;8.58;100.00
47240;BME280;32978;53.586;10.052;2023-02-02T14:23:52;101933.16;;;8.64;100.00
47240;BME280;32978;53.586;10.052;2023-02-02T14:28:49;101930.94;;;8.10;100.00
47240;BME280;32978;53.586;10.052;2023-02-02T14:33:47;101938.16;;;7.43;100.00
47240;BME280;32978;53.586;10.052;2023-02-02T14:39:22;101955.91;;;7.03;100.00
47240;BME280;32978;53.586;10.052;2023-02-02T14:44:21;101970.06;;;7.05;100.00
47240;BME280;32978;53.586;10.052;2023-02-02T14:49:20;101970.66;;;7.12;100.00
47240;BME280;32978;53.586;10.052;2023-02-02T14:54:26;101984.00;;;7.13;100.00
47240;BME280;32978;53.586;10.052;2023-02-02T14:59:31;101994.00;;;7.03;100.00
47240;BME280;32978;53.586;10.052;2023-02-02T15:04:29;102004.13;;;6.75;100.00
47240;BME280;32978;53.586;10.052;2023-02-02T15:09:31;102010.03;;;6.62;100.00
47240;BME280;32978;53.586;10.052;2023-02-02T15:19:36;102016.06;;;6.37;100.00
47240;BME280;32978;53.586;10.052;2023-02-02T15:24:34;102026.34;;;6.35;100.00
47240;BME280;32978;53.586;10.052;2023-02-02T15:29:39;102033.53;;;6.19;100.00
47240;BME280;32978;53.586;10.052;2023-02-02T15:34:41;102046.69;;;6.05;100.00
47240;BME280;32978;53.586;10.052;2023-02-02T15:39:41;102057.34;;;5.89;100.00
47240;BME280;32978;53.586;10.052;2023-02-02T15:44:38;102060.75;;;5.80;100.00
47240;BME280;32978;53.586;10.052;2023-02-02T15:49:35;102069.06;;;5.73;100.00
47240;BME280;32978;53.586;10.052;2023-02-02T15:54:34;102081.13;;;5.60;100.00
47240;BME280;32978;53.586;10.052;2023-02-02T15:59:40;102088.56;;;5.48;100.00
47240;BME280;32978;53.586;10.052;2023-02-02T16:04:38;102101.06;;;5.49;100.00
47240;BME280;32978;53.586;10.052;2023-02-02T16:09:36;102104.22;;;5.41;100.00
47240;BME280;32978;53.586;10.052;2023-02-02T16:14:37;102121.78;;;5.38;100.00
47240;BME280;32978;53.586;10.052;2023-02-02T16:19:35;102126.38;;;5.38;100.00
47240;BME280;32978;53.586;10.052;2023-02-02T16:24:43;102135.53;;;5.32;100.00
47240;BME280;32978;53.586;10.052;2023-02-02T16:29:42;102145.22;;;5.27;100.00
47240;BME280;32978;53.586;10.052;2023-02-02T16:39:35;102142.34;;;5.17;100.00
47240;BME280;32978;53.586;10.052;2023-02-02T16:44:42;102136.59;;;5.14;100.00
47240;BME280;32978;53.586;10.052;2023-02-02T16:49:41;102137.41;;;5.14;100.00
47240;BME280;32978;53.586;10.052;2023-02-02T16:54:39;102140.19;;;5.02;100.00
47240;BME280;32978;53.586;10.052;2023-02-02T16:59:38;102140.34;;;4.96;100.00
47240;BME280;32978;53.586;10.052;2023-02-02T17:04:35;102132.97;;;4.91;100.00
47240;BME280;32978;53.586;10.052;2023-02-02T17:09:35;102142.81;;;4.80;100.00
47240;BME280;32978;53.586;10.052;2023-02-02T17:14:35;102142.13;;;4.73;100.00
47240;BME280;32978;53.586;10.052;2023-02-02T17:19:32;102162.00;;;4.62;100.00
47240;BME280;32978;53.586;10.052;2023-02-02T17:24:28;102162.38;;;4.54;100.00
47240;BME280;32978;53.586;10.052;2023-02-02T17:29:25;102162.03;;;4.50;100.00
47240;BME280;32978;53.586;10.052;2023-02-02T17:34:22;102156.88;;;4.49;100.00
47240;BME280;32978;53.586;10.052;2023-02-02T17:39:19;102155.09;;;4.42;100.00
47240;BME280;32978;53.586;10.052;2023-02-02T17:44:15;102148.66;;;4.43;100.00
47240;BME280;32978;53.586;10.052;2023-02-02T17:49:12;102152.50;;;4.48;100.00
47240;BME280;32978;53.586;10.052;2023-02-02T17:54:12;102140.34;;;4.50;100.00
47240;BME280;32978;53.586;10.052;2023-02-02T17:59:09;102145.53;;;4.52;100.00
47240;BME280;32978;53.586;10.052;2023-02-02T18:04:10;102152.69;;;4.58;100.00
47240;BME280;32978;53.586;10.052;2023-02-02T18:09:08;102151.97;;;4.62;100.00
47240;BME280;32978;53.586;10.052;2023-02-02T18:14:04;102151.97;;;4.62;100.00
47240;BME280;32978;53.586;10.052;2023-02-02T18:19:01;102150.59;;;4.77;100.00
47240;BME280;32978;53.586;10.052;2023-02-02T18:23:58;102141.00;;;4.86;100.00
47240;BME280;32978;53.586;10.052;2023-02-02T18:28:54;102141.75;;;4.81;100.00
47240;BME280;32978;53.586;10.052;2023-02-02T18:33:51;102137.41;;;4.80;100.00
47240;BME280;32978;53.586;10.052;2023-02-02T18:38:49;102130.91;;;4.81;100.00
47240;BME280;32978;53.586;10.052;2023-02-02T18:43:47;102127.88;;;4.95;100.00
47240;BME280;32978;53.586;10.052;2023-02-02T18:48:43;102118.69;;;4.96;100.00
47240;BME280;32978;53.586;10.052;2023-02-02T18:53:47;102117.69;;;5.02;100.00
47240;BME280;32978;53.586;10.052;2023-02-02T18:58:44;102110.53;;;4.96;100.00
47240;BME280;32978;53.586;10.052;2023-02-02T19:03:46;102119.34;;;5.03;100.00
47240;BME280;32978;53.586;10.052;2023-02-02T19:08:43;102100.44;;;5.08;100.00
47240;BME280;32978;53.586;10.052;2023-02-02T19:13:40;102082.94;;;4.99;100.00
47240;BME280;32978;53.586;10.052;2023-02-02T19:18:36;102074.81;;;4.99;100.00
47240;BME280;32978;53.586;10.052;2023-02-02T19:23:33;102071.03;;;5.00;100.00
47240;BME280;32978;53.586;10.052;2023-02-02T19:28:32;102065.94;;;5.03;100.00
47240;BME280;32978;53.586;10.052;2023-02-02T19:33:39;102068.41;;;5.05;100.00
47240;BME280;32978;53.586;10.052;2023-02-02T19:38:37;102052.13;;;5.05;100.00
47240;BME280;32978;53.586;10.052;2023-02-02T19:43:33;102041.22;;;5.00;100.00
47240;BME280;32978;53.586;10.052;2023-02-02T19:48:35;102040.13;;;5.01;100.00
47240;BME280;32978;53.586;10.052;2023-02-02T19:53:36;102041.28;;;5.05;100.00
47240;BME280;32978;53.586;10.052;2023-02-02T19:58:34;102043.94;;;5.00;100.00
47240;BME280;32978;53.586;10.052;2023-02-02T20:03:40;102034.72;;;5.01;100.00
47240;BME280;32978;53.586;10.052;2023-02-02T20:08:41;102042.78;;;4.96;100.00
47240;BME280;32978;53.586;10.052;2023-02-02T20:13:47;102047.97;;;4.80;100.00
47240;BME280;32978;53.586;10.052;2023-02-02T20:18:46;102061.19;;;4.77;100.00
47240;BME280;32978;53.586;10.052;2023-02-02T20:23:46;102047.72;;;4.65;100.00
47240;BME280;32978;53.586;10.052;2023-02-02T20:28:44;102039.34;;;4.67;100.00
47240;BME280;32978;53.586;10.052;2023-02-02T20:33:45;102044.44;;;4.63;100.00
47240;BME280;32978;53.586;10.052;2023-02-02T20:38:42;102042.44;;;4.58;100.00
47240;BME280;32978;53.586;10.052;2023-02-02T20:43:38;102043.69;;;4.51;100.00
47240;BME280;32978;53.586;10.052;2023-02-02T20:48:35;102032.78;;;4.46;100.00
47240;BME280;32978;53.586;10.052;2023-02-02T20:53:31;102032.34;;;4.37;100.00
47240;BME280;32978;53.586;10.052;2023-02-02T20:58:28;102019.25;;;4.34;100.00
47240;BME280;32978;53.586;10.052;2023-02-02T21:03:24;102019.25;;;4.34;100.00
47240;BME280;32978;53.586;10.052;2023-02-02T21:08:21;102016.91;;;4.37;100.00
47240;BME280;32978;53.586;10.052;2023-02-02T21:13:17;101997.78;;;4.27;100.00
47240;BME280;32978;53.586;10.052;2023-02-02T21:18:14;101995.41;;;4.31;100.00
47240;BME280;32978;53.586;10.052;2023-02-02T21:23:10;101989.09;;;4.25;100.00
47240;BME280;32978;53.586;10.052;2023-02-02T21:28:06;101988.88;;;4.15;100.00
47240;BME280;32978;53.586;10.052;2023-02-02T21:33:05;101982.81;;;4.08;100.00
47240;BME280;32978;53.586;10.052;2023-02-02T21:38:14;101997.88;;;4.04;100.00
47240;BME280;32978;53.586;10.052;2023-02-02T21:43:17;101997.22;;;3.96;100.00
47240;BME280;32978;53.586;10.052;2023-02-02T21:48:32;101991.47;;;3.93;100.00
47240;BME280;32978;53.586;10.052;2023-02-02T21:53:31;101984.75;;;3.95;100.00
47240;BME280;32978;53.586;10.052;2023-02-02T21:58:32;101968.53;;;3.95;100.00
47240;BME280;32978;53.586;10.052;2023-02-02T22:03:37;101968.03;;;3.98;100.00
47240;BME280;32978;53.586;10.052;2023-02-02T22:08:34;101946.66;;;3.85;100.00
47240;BME280;32978;53.586;10.052;2023-02-02T22:13:33;101929.63;;;3.85;100.00
47240;BME280;32978;53.586;10.052;2023-02-02T22:18:31;101914.53;;;3.89;100.00
47240;BME280;32978;53.586;10.052;2023-02-02T22:23:27;101911.75;;;3.84;100.00
47240;BME280;32978;53.586;10.052;2023-02-02T22:28:27;101889.31;;;3.83;100.00
47240;BME280;32978;53.586;10.052;2023-02-02T22:33:24;101883.88;;;3.83;100.00
47240;BME280;32978;53.586;10.052;2023-02-02T22:38:23;101857.16;;;3.87;100.00
47240;BME280;32978;53.586;10.052;2023-02-02T22:43:20;101860.59;;;3.82;100.00
47240;BME280;32978;53.586;10.052;2023-02-02T22:48:17;101846.00;;;3.83;100.00
47240;BME280;32978;53.586;10.052;2023-02-02T22:53:14;101851.56;;;3.93;100.00
47240;BME280;32978;53.586;10.052;2023-02-02T22:58:10;101828.31;;;3.92;100.00
47240;BME280;32978;53.586;10.052;2023-02-02T23:03:07;101826.00;;;3.84;100.00
47240;BME280;32978;53.586;10.052;2023-02-02T23:08:03;101810.34;;;3.86;100.00
47240;BME280;32978;53.586;10.052;2023-02-02T23:13:01;101805.44;;;3.83;100.00
47240;BME280;32978;53.586;10.052;2023-02-02T23:17:59;101799.81;;;3.90;100.00
47240;BME280;32978;53.586;10.052;2023-02-02T23:22:55;101778.09;;;3.85;100.00
47240;BME280;32978;53.586;10.052;2023-02-02T23:27:52;101766.63;;;3.94;100.00
47240;BME280;32978;53.586;10.052;2023-02-02T23:32:48;101747.94;;;3.93;100.00
47240;BME280;32978;53.586;10.052;2023-02-02T23:37:45;101734.16;;;3.94;100.00
47240;BME280;32978;53.586;10.052;2023-02-02T23:42:41;101732.66;;;4.04;100.00
47240;BME280;32978;53.586;10.052;2023-02-02T23:47:38;101722.50;;;4.11;100.00
47240;BME280;32978;53.586;10.052;2023-02-02T23:52:35;101725.75;;;4.13;100.00
47240;BME280;32978;53.586;10.052;2023-02-02T23:57:32;101727.03;;;4.27;100.00
